sensor_id;sensor_type;location;lat;lon;timestamp;temperature;humidity
52016;DHT22;38032;53.326;6.472;2022-08-03T00:01:17;18.80;99.90
52016;DHT22;38032;53.326;6.472;2022-08-03T00:03:43;18.80;99.90
52016;DHT22;38032;53.326;6.472;2022-08-03T00:06:09;18.80;99.90
52016;DHT22;38032;53.326;6.472;2022-08-03T00:08:35;18.80;99.90
52016;DHT22;38032;53.326;6.472;2022-08-03T00:11:01;18.80;99.90
52016;DHT22;38032;53.326;6.472;2022-08-03T00:13:27;18.70;99.90
52016;DHT22;38032;53.326;6.472;2022-08-03T00:15:53;18.70;99.90
52016;DHT22;38032;53.326;6.472;2022-08-03T00:18:19;18.70;99.90
52016;DHT22;38032;53.326;6.472;2022-08-03T00:20:45;18.70;99.90
52016;DHT22;38032;53.326;6.472;2022-08-03T00:23:11;18.60;99.90
52016;DHT22;38032;53.326;6.472;2022-08-03T00:25:37;18.60;99.90
52016;DHT22;38032;53.326;6.472;2022-08-03T00:28:04;18.60;99.90
52016;DHT22;38032;53.326;6.472;2022-08-03T00:30:30;18.60;99.90
52016;DHT22;38032;53.326;6.472;2022-08-03T00:32:57;18.60;99.90
52016;DHT22;38032;53.326;6.472;2022-08-03T00:35:24;18.60;99.90
52016;DHT22;38032;53.326;6.472;2022-08-03T00:37:50;18.60;99.90
52016;DHT22;38032;53.326;6.472;2022-08-03T00:40:17;18.70;99.90
52016;DHT22;38032;53.326;6.472;2022-08-03T00:45:13;18.70;99.90
52016;DHT22;38032;53.326;6.472;2022-08-03T00:47:39;18.70;99.90
52016;DHT22;38032;53.326;6.472;2022-08-03T00:50:05;18.80;99.90
52016;DHT22;38032;53.326;6.472;2022-08-03T00:52:31;18.80;99.90
52016;DHT22;38032;53.326;6.472;2022-08-03T00:54:57;18.80;99.90
52016;DHT22;38032;53.326;6.472;2022-08-03T00:57:22;18.80;99.90
52016;DHT22;38032;53.326;6.472;2022-08-03T00:59:48;18.80;99.90
52016;DHT22;38032;53.326;6.472;2022-08-03T01:02:14;18.80;99.90
52016;DHT22;38032;53.326;6.472;2022-08-03T01:04:40;18.80;99.90
52016;DHT22;38032;53.326;6.472;2022-08-03T01:07:16;18.90;99.90
52016;DHT22;38032;53.326;6.472;2022-08-03T01:09:53;18.80;99.90
52016;DHT22;38032;53.326;6.472;2022-08-03T01:12:34;18.90;99.90
52016;DHT22;38032;53.326;6.472;2022-08-03T01:17:56;18.90;99.90
52016;DHT22;38032;53.326;6.472;2022-08-03T01:20:28;18.90;99.90
52016;DHT22;38032;53.326;6.472;2022-08-03T01:23:05;18.80;99.90
52016;DHT22;38032;53.326;6.472;2022-08-03T01:28:21;18.70;99.90
52016;DHT22;38032;53.326;6.472;2022-08-03T01:30:52;18.70;99.90
52016;DHT22;38032;53.326;6.472;2022-08-03T01:33:27;18.60;99.90
52016;DHT22;38032;53.326;6.472;2022-08-03T01:36:01;18.60;99.90
52016;DHT22;38032;53.326;6.472;2022-08-03T01:38:33;18.60;99.90
52016;DHT22;38032;53.326;6.472;2022-08-03T01:41:05;18.50;99.90
52016;DHT22;38032;53.326;6.472;2022-08-03T01:43:33;18.50;99.90
52016;DHT22;38032;53.326;6.472;2022-08-03T01:46:01;18.50;99.90
52016;DHT22;38032;53.326;6.472;2022-08-03T01:48:27;18.40;99.90
52016;DHT22;38032;53.326;6.472;2022-08-03T01:50:55;18.40;99.90
52016;DHT22;38032;53.326;6.472;2022-08-03T01:53:22;18.40;99.90
52016;DHT22;38032;53.326;6.472;2022-08-03T01:55:52;18.40;99.90
52016;DHT22;38032;53.326;6.472;2022-08-03T01:58:20;18.40;99.90
52016;DHT22;38032;53.326;6.472;2022-08-03T02:00:48;18.40;99.90
52016;DHT22;38032;53.326;6.472;2022-08-03T02:03:15;18.40;99.90
52016;DHT22;38032;53.326;6.472;2022-08-03T02:05:44;18.40;99.90
52016;DHT22;38032;53.326;6.472;2022-08-03T02:08:12;18.40;99.90
52016;DHT22;38032;53.326;6.472;2022-08-03T02:10:40;18.40;99.90
52016;DHT22;38032;53.326;6.472;2022-08-03T02:13:08;18.40;99.90
52016;DHT22;38032;53.326;6.472;2022-08-03T02:15:36;18.40;99.90
52016;DHT22;38032;53.326;6.472;2022-08-03T02:18:05;18.40;99.90
52016;DHT22;38032;53.326;6.472;2022-08-03T02:20:32;18.40;99.90
52016;DHT22;38032;53.326;6.472;2022-08-03T02:23:02;18.40;99.90
52016;DHT22;38032;53.326;6.472;2022-08-03T02:25:29;18.40;99.90
52016;DHT22;38032;53.326;6.472;2022-08-03T02:28:03;18.40;99.90
52016;DHT22;38032;53.326;6.472;2022-08-03T02:30:37;18.40;99.90
52016;DHT22;38032;53.326;6.472;2022-08-03T02:33:06;18.40;99.90
52016;DHT22;38032;53.326;6.472;2022-08-03T02:35:33;18.50;99.90
52016;DHT22;38032;53.326;6.472;2022-08-03T02:38:03;18.50;99.90
52016;DHT22;38032;53.326;6.472;2022-08-03T02:40:30;18.50;99.90
52016;DHT22;38032;53.326;6.472;2022-08-03T02:43:01;18.60;99.90
52016;DHT22;38032;53.326;6.472;2022-08-03T02:45:28;18.60;99.90
52016;DHT22;38032;53.326;6.472;2022-08-03T02:47:59;18.60;99.90
52016;DHT22;38032;53.326;6.472;2022-08-03T02:50:26;18.70;99.90
52016;DHT22;38032;53.326;6.472;2022-08-03T02:52:54;18.70;99.90
52016;DHT22;38032;53.326;6.472;2022-08-03T02:55:21;18.70;99.90
52016;DHT22;38032;53.326;6.472;2022-08-03T02:57:47;18.70;99.90
52016;DHT22;38032;53.326;6.472;2022-08-03T03:00:14;18.70;99.90
52016;DHT22;38032;53.326;6.472;2022-08-03T03:02:43;18.60;99.90
52016;DHT22;38032;53.326;6.472;2022-08-03T03:05:09;18.70;99.90
52016;DHT22;38032;53.326;6.472;2022-08-03T03:07:36;18.60;99.90
52016;DHT22;38032;53.326;6.472;2022-08-03T03:10:04;18.60;99.90
52016;DHT22;38032;53.326;6.472;2022-08-03T03:12:30;18.60;99.90
52016;DHT22;38032;53.326;6.472;2022-08-03T03:14:57;18.60;99.90
52016;DHT22;38032;53.326;6.472;2022-08-03T03:17:24;18.50;99.90
52016;DHT22;38032;53.326;6.472;2022-08-03T03:19:50;18.50;99.90
52016;DHT22;38032;53.326;6.472;2022-08-03T03:22:17;16.40;99.90
52016;DHT22;38032;53.326;6.472;2022-08-03T03:24:44;18.50;99.90
52016;DHT22;38032;53.326;6.472;2022-08-03T03:27:13;18.50;99.90
52016;DHT22;38032;53.326;6.472;2022-08-03T03:29:39;18.40;99.90
52016;DHT22;38032;53.326;6.472;2022-08-03T03:32:06;18.40;99.90
52016;DHT22;38032;53.326;6.472;2022-08-03T03:34:32;18.50;99.90
52016;DHT22;38032;53.326;6.472;2022-08-03T03:36:57;18.40;99.90
52016;DHT22;38032;53.326;6.472;2022-08-03T03:39:23;18.40;99.90
52016;DHT22;38032;53.326;6.472;2022-08-03T03:41:49;18.40;99.90
52016;DHT22;38032;53.326;6.472;2022-08-03T03:44:15;18.40;99.90
52016;DHT22;38032;53.326;6.472;2022-08-03T03:46:41;18.40;99.90
52016;DHT22;38032;53.326;6.472;2022-08-03T03:49:07;18.40;99.90
52016;DHT22;38032;53.326;6.472;2022-08-03T03:51:33;18.40;99.90
52016;DHT22;38032;53.326;6.472;2022-08-03T03:54:02;18.30;99.90
52016;DHT22;38032;53.326;6.472;2022-08-03T03:56:31;18.40;99.90
52016;DHT22;38032;53.326;6.472;2022-08-03T03:58:57;18.30;99.90
52016;DHT22;38032;53.326;6.472;2022-08-03T04:01:23;18.30;99.90
52016;DHT22;38032;53.326;6.472;2022-08-03T04:03:48;18.30;99.90
52016;DHT22;38032;53.326;6.472;2022-08-03T04:06:14;18.40;99.90
52016;DHT22;38032;53.326;6.472;2022-08-03T04:08:59;18.40;99.90
52016;DHT22;38032;53.326;6.472;2022-08-03T04:11:29;18.40;99.90
52016;DHT22;38032;53.326;6.472;2022-08-03T04:14:02;18.40;99.90
52016;DHT22;38032;53.326;6.472;2022-08-03T04:16:34;18.40;99.90
52016;DHT22;38032;53.326;6.472;2022-08-03T04:19:03;18.40;99.90
52016;DHT22;38032;53.326;6.472;2022-08-03T04:21:31;18.40;99.90
52016;DHT22;38032;53.326;6.472;2022-08-03T04:24:02;18.50;99.90
52016;DHT22;38032;53.326;6.472;2022-08-03T04:26:31;18.50;99.90
52016;DHT22;38032;53.326;6.472;2022-08-03T04:28:58;18.60;99.90
52016;DHT22;38032;53.326;6.472;2022-08-03T04:31:25;18.60;99.90
52016;DHT22;38032;53.326;6.472;2022-08-03T04:33:52;18.60;99.90
52016;DHT22;38032;53.326;6.472;2022-08-03T04:36:22;18.60;99.90
52016;DHT22;38032;53.326;6.472;2022-08-03T04:39:07;18.70;99.90
52016;DHT22;38032;53.326;6.472;2022-08-03T04:41:35;18.70;99.90
52016;DHT22;38032;53.326;6.472;2022-08-03T04:44:04;18.80;99.90
52016;DHT22;38032;53.326;6.472;2022-08-03T04:46:33;18.70;99.90
52016;DHT22;38032;53.326;6.472;2022-08-03T04:49:00;18.80;99.90
52016;DHT22;38032;53.326;6.472;2022-08-03T04:51:27;18.80;99.90
52016;DHT22;38032;53.326;6.472;2022-08-03T04:53:53;18.90;99.90
52016;DHT22;38032;53.326;6.472;2022-08-03T04:56:19;19.00;99.90
52016;DHT22;38032;53.326;6.472;2022-08-03T04:58:44;19.00;99.90
52016;DHT22;38032;53.326;6.472;2022-08-03T05:01:10;19.00;99.90
52016;DHT22;38032;53.326;6.472;2022-08-03T05:03:36;19.10;99.90
52016;DHT22;38032;53.326;6.472;2022-08-03T05:06:02;19.20;99.90
52016;DHT22;38032;53.326;6.472;2022-08-03T05:08:28;19.20;99.90
52016;DHT22;38032;53.326;6.472;2022-08-03T05:10:55;19.30;99.90
52016;DHT22;38032;53.326;6.472;2022-08-03T05:13:21;19.40;99.90
52016;DHT22;38032;53.326;6.472;2022-08-03T05:15:47;19.40;99.90
52016;DHT22;38032;53.326;6.472;2022-08-03T05:18:13;19.40;99.90
52016;DHT22;38032;53.326;6.472;2022-08-03T05:20:39;19.50;99.90
52016;DHT22;38032;53.326;6.472;2022-08-03T05:23:05;19.50;99.90
52016;DHT22;38032;53.326;6.472;2022-08-03T05:25:31;19.60;99.90
52016;DHT22;38032;53.326;6.472;2022-08-03T05:27:57;19.70;99.90
52016;DHT22;38032;53.326;6.472;2022-08-03T05:30:23;19.70;99.90
52016;DHT22;38032;53.326;6.472;2022-08-03T05:32:49;19.80;99.90
52016;DHT22;38032;53.326;6.472;2022-08-03T05:35:14;19.80;99.90
52016;DHT22;38032;53.326;6.472;2022-08-03T05:37:40;19.80;99.90
52016;DHT22;38032;53.326;6.472;2022-08-03T05:40:07;19.90;99.90
52016;DHT22;38032;53.326;6.472;2022-08-03T05:42:35;19.90;99.90
52016;DHT22;38032;53.326;6.472;2022-08-03T05:45:03;20.00;99.90
52016;DHT22;38032;53.326;6.472;2022-08-03T05:47:40;20.00;99.90
52016;DHT22;38032;53.326;6.472;2022-08-03T05:50:06;20.10;99.90
52016;DHT22;38032;53.326;6.472;2022-08-03T05:52:32;20.20;99.90
52016;DHT22;38032;53.326;6.472;2022-08-03T05:54:58;20.20;99.90
52016;DHT22;38032;53.326;6.472;2022-08-03T05:57:24;20.30;99.90
52016;DHT22;38032;53.326;6.472;2022-08-03T05:59:50;20.30;99.90
52016;DHT22;38032;53.326;6.472;2022-08-03T06:02:16;20.30;99.90
52016;DHT22;38032;53.326;6.472;2022-08-03T06:04:42;20.30;99.90
52016;DHT22;38032;53.326;6.472;2022-08-03T06:07:07;20.40;99.90
52016;DHT22;38032;53.326;6.472;2022-08-03T06:09:33;20.50;99.90
52016;DHT22;38032;53.326;6.472;2022-08-03T06:11:59;20.50;99.90
52016;DHT22;38032;53.326;6.472;2022-08-03T06:14:25;20.50;99.90
52016;DHT22;38032;53.326;6.472;2022-08-03T06:16:50;20.60;99.90
52016;DHT22;38032;53.326;6.472;2022-08-03T06:19:16;20.60;99.90
52016;DHT22;38032;53.326;6.472;2022-08-03T06:21:42;20.60;99.90
52016;DHT22;38032;53.326;6.472;2022-08-03T06:24:08;20.70;99.90
52016;DHT22;38032;53.326;6.472;2022-08-03T06:26:34;20.80;99.90
52016;DHT22;38032;53.326;6.472;2022-08-03T06:29:00;20.80;99.90
52016;DHT22;38032;53.326;6.472;2022-08-03T06:31:26;20.80;99.90
52016;DHT22;38032;53.326;6.472;2022-08-03T06:33:54;20.90;99.90
52016;DHT22;38032;53.326;6.472;2022-08-03T06:36:19;20.90;99.90
52016;DHT22;38032;53.326;6.472;2022-08-03T06:38:45;21.00;99.90
52016;DHT22;38032;53.326;6.472;2022-08-03T06:41:11;21.00;99.90
52016;DHT22;38032;53.326;6.472;2022-08-03T06:43:37;21.00;99.90
52016;DHT22;38032;53.326;6.472;2022-08-03T06:46:03;21.10;99.90
52016;DHT22;38032;53.326;6.472;2022-08-03T06:48:30;21.10;99.90
52016;DHT22;38032;53.326;6.472;2022-08-03T06:50:56;21.10;99.90
52016;DHT22;38032;53.326;6.472;2022-08-03T06:53:21;21.10;99.90
52016;DHT22;38032;53.326;6.472;2022-08-03T06:55:47;21.20;99.90
52016;DHT22;38032;53.326;6.472;2022-08-03T06:58:13;21.20;99.90
52016;DHT22;38032;53.326;6.472;2022-08-03T07:00:39;21.30;99.90
52016;DHT22;38032;53.326;6.472;2022-08-03T07:03:05;21.30;99.90
52016;DHT22;38032;53.326;6.472;2022-08-03T07:05:30;21.40;99.90
52016;DHT22;38032;53.326;6.472;2022-08-03T07:07:59;21.40;99.90
52016;DHT22;38032;53.326;6.472;2022-08-03T07:10:26;21.40;99.90
52016;DHT22;38032;53.326;6.472;2022-08-03T07:12:52;21.40;99.90
52016;DHT22;38032;53.326;6.472;2022-08-03T07:15:18;21.50;99.90
52016;DHT22;38032;53.326;6.472;2022-08-03T07:17:44;21.50;99.90
52016;DHT22;38032;53.326;6.472;2022-08-03T07:20:10;21.60;99.90
52016;DHT22;38032;53.326;6.472;2022-08-03T07:22:37;21.60;99.90
52016;DHT22;38032;53.326;6.472;2022-08-03T07:25:04;21.60;99.90
52016;DHT22;38032;53.326;6.472;2022-08-03T07:27:30;21.70;99.90
52016;DHT22;38032;53.326;6.472;2022-08-03T07:29:57;21.70;99.90
52016;DHT22;38032;53.326;6.472;2022-08-03T07:32:23;21.70;99.90
52016;DHT22;38032;53.326;6.472;2022-08-03T07:34:49;21.80;99.90
52016;DHT22;38032;53.326;6.472;2022-08-03T07:37:15;21.80;99.90
52016;DHT22;38032;53.326;6.472;2022-08-03T07:39:41;21.80;99.90
52016;DHT22;38032;53.326;6.472;2022-08-03T07:42:07;21.80;99.90
52016;DHT22;38032;53.326;6.472;2022-08-03T07:44:32;21.90;99.90
52016;DHT22;38032;53.326;6.472;2022-08-03T07:46:58;21.90;99.90
52016;DHT22;38032;53.326;6.472;2022-08-03T07:49:24;22.00;99.90
52016;DHT22;38032;53.326;6.472;2022-08-03T07:51:50;22.00;99.90
52016;DHT22;38032;53.326;6.472;2022-08-03T07:54:36;22.00;99.90
52016;DHT22;38032;53.326;6.472;2022-08-03T07:57:02;22.10;99.90
52016;DHT22;38032;53.326;6.472;2022-08-03T07:59:27;22.10;99.90
52016;DHT22;38032;53.326;6.472;2022-08-03T08:01:53;22.20;99.90
52016;DHT22;38032;53.326;6.472;2022-08-03T08:04:19;22.20;99.90
52016;DHT22;38032;53.326;6.472;2022-08-03T08:06:45;22.20;99.90
52016;DHT22;38032;53.326;6.472;2022-08-03T08:09:10;22.30;99.90
52016;DHT22;38032;53.326;6.472;2022-08-03T08:11:36;22.30;99.90
52016;DHT22;38032;53.326;6.472;2022-08-03T08:14:02;22.40;99.90
52016;DHT22;38032;53.326;6.472;2022-08-03T08:16:29;22.40;99.90
52016;DHT22;38032;53.326;6.472;2022-08-03T08:18:55;22.50;99.90
52016;DHT22;38032;53.326;6.472;2022-08-03T08:21:21;22.50;99.90
52016;DHT22;38032;53.326;6.472;2022-08-03T08:23:47;22.60;99.90
52016;DHT22;38032;53.326;6.472;2022-08-03T08:26:13;22.60;99.90
52016;DHT22;38032;53.326;6.472;2022-08-03T08:28:39;22.70;99.90
52016;DHT22;38032;53.326;6.472;2022-08-03T08:31:04;22.80;99.90
52016;DHT22;38032;53.326;6.472;2022-08-03T08:33:30;22.90;99.90
52016;DHT22;38032;53.326;6.472;2022-08-03T08:35:56;23.00;99.90
52016;DHT22;38032;53.326;6.472;2022-08-03T08:38:22;23.10;99.90
52016;DHT22;38032;53.326;6.472;2022-08-03T08:40:49;23.10;99.90
52016;DHT22;38032;53.326;6.472;2022-08-03T08:43:15;23.20;99.90
52016;DHT22;38032;53.326;6.472;2022-08-03T08:45:41;23.20;99.90
52016;DHT22;38032;53.326;6.472;2022-08-03T08:48:09;23.30;99.90
52016;DHT22;38032;53.326;6.472;2022-08-03T08:50:37;23.30;99.90
52016;DHT22;38032;53.326;6.472;2022-08-03T08:53:06;23.30;99.90
52016;DHT22;38032;53.326;6.472;2022-08-03T08:55:34;23.40;99.90
52016;DHT22;38032;53.326;6.472;2022-08-03T08:58:03;23.40;99.90
52016;DHT22;38032;53.326;6.472;2022-08-03T09:00:29;23.50;99.90
52016;DHT22;38032;53.326;6.472;2022-08-03T09:02:55;23.60;99.90
52016;DHT22;38032;53.326;6.472;2022-08-03T09:05:21;23.60;99.90
52016;DHT22;38032;53.326;6.472;2022-08-03T09:07:48;23.80;99.90
52016;DHT22;38032;53.326;6.472;2022-08-03T09:10:15;23.80;99.90
52016;DHT22;38032;53.326;6.472;2022-08-03T09:12:46;23.90;99.90
52016;DHT22;38032;53.326;6.472;2022-08-03T09:15:18;24.00;99.90
52016;DHT22;38032;53.326;6.472;2022-08-03T09:17:44;24.00;99.90
52016;DHT22;38032;53.326;6.472;2022-08-03T09:20:10;24.10;99.90
52016;DHT22;38032;53.326;6.472;2022-08-03T09:22:58;24.50;99.90
52016;DHT22;38032;53.326;6.472;2022-08-03T09:25:29;25.20;99.90
52016;DHT22;38032;53.326;6.472;2022-08-03T09:28:04;26.70;99.90
52016;DHT22;38032;53.326;6.472;2022-08-03T09:30:31;27.80;99.90
52016;DHT22;38032;53.326;6.472;2022-08-03T09:33:03;28.60;99.90
52016;DHT22;38032;53.326;6.472;2022-08-03T09:35:30;29.40;99.90
52016;DHT22;38032;53.326;6.472;2022-08-03T09:38:10;30.20;99.90
52016;DHT22;38032;53.326;6.472;2022-08-03T09:40:36;31.00;98.10
52016;DHT22;38032;53.326;6.472;2022-08-03T09:43:02;31.60;96.10
52016;DHT22;38032;53.326;6.472;2022-08-03T09:45:28;32.00;93.60
52016;DHT22;38032;53.326;6.472;2022-08-03T09:47:54;32.30;91.40
52016;DHT22;38032;53.326;6.472;2022-08-03T09:50:22;32.70;89.20
52016;DHT22;38032;53.326;6.472;2022-08-03T09:52:50;33.20;87.20
52016;DHT22;38032;53.326;6.472;2022-08-03T09:55:17;33.50;83.60
52016;DHT22;38032;53.326;6.472;2022-08-03T09:57:45;33.70;80.80
52016;DHT22;38032;53.326;6.472;2022-08-03T10:00:13;33.20;80.10
52016;DHT22;38032;53.326;6.472;2022-08-03T10:02:41;33.20;79.60
52016;DHT22;38032;53.326;6.472;2022-08-03T10:05:09;33.40;78.50
52016;DHT22;38032;53.326;6.472;2022-08-03T10:07:43;33.50;77.70
52016;DHT22;38032;53.326;6.472;2022-08-03T10:10:09;33.70;76.90
52016;DHT22;38032;53.326;6.472;2022-08-03T10:12:36;34.00;75.10
52016;DHT22;38032;53.326;6.472;2022-08-03T10:15:02;34.20;74.00
52016;DHT22;38032;53.326;6.472;2022-08-03T10:17:28;34.40;74.20
52016;DHT22;38032;53.326;6.472;2022-08-03T10:19:54;34.70;72.10
52016;DHT22;38032;53.326;6.472;2022-08-03T10:22:22;34.80;71.30
52016;DHT22;38032;53.326;6.472;2022-08-03T10:24:55;34.90;70.30
52016;DHT22;38032;53.326;6.472;2022-08-03T10:27:25;34.80;69.90
52016;DHT22;38032;53.326;6.472;2022-08-03T10:29:54;34.70;69.50
52016;DHT22;38032;53.326;6.472;2022-08-03T10:32:27;34.60;68.80
52016;DHT22;38032;53.326;6.472;2022-08-03T10:34:59;34.40;69.10
52016;DHT22;38032;53.326;6.472;2022-08-03T10:37:29;34.20;69.50
52016;DHT22;38032;53.326;6.472;2022-08-03T10:39:59;34.10;69.60
52016;DHT22;38032;53.326;6.472;2022-08-03T10:42:25;33.80;69.60
52016;DHT22;38032;53.326;6.472;2022-08-03T10:45:02;33.70;70.00
52016;DHT22;38032;53.326;6.472;2022-08-03T10:47:30;33.60;72.80
52016;DHT22;38032;53.326;6.472;2022-08-03T10:49:57;33.70;72.20
52016;DHT22;38032;53.326;6.472;2022-08-03T10:52:24;33.60;70.90
52016;DHT22;38032;53.326;6.472;2022-08-03T10:54:49;33.50;70.50
52016;DHT22;38032;53.326;6.472;2022-08-03T10:57:46;33.40;70.40
52016;DHT22;38032;53.326;6.472;2022-08-03T11:00:15;33.30;70.90
52016;DHT22;38032;53.326;6.472;2022-08-03T11:03:07;33.10;71.20
52016;DHT22;38032;53.326;6.472;2022-08-03T11:05:37;32.90;71.70
52016;DHT22;38032;53.326;6.472;2022-08-03T11:08:27;32.70;72.50
52016;DHT22;38032;53.326;6.472;2022-08-03T11:10:56;32.40;72.70
52016;DHT22;38032;53.326;6.472;2022-08-03T11:13:24;32.30;73.00
52016;DHT22;38032;53.326;6.472;2022-08-03T11:15:53;32.00;73.60
52016;DHT22;38032;53.326;6.472;2022-08-03T11:18:19;31.80;73.80
52016;DHT22;38032;53.326;6.472;2022-08-03T11:20:51;31.70;74.40
52016;DHT22;38032;53.326;6.472;2022-08-03T11:23:38;31.40;74.30
52016;DHT22;38032;53.326;6.472;2022-08-03T11:26:11;31.20;74.80
52016;DHT22;38032;53.326;6.472;2022-08-03T11:28:39;31.10;75.50
52016;DHT22;38032;53.326;6.472;2022-08-03T11:34:08;30.70;77.00
52016;DHT22;38032;53.326;6.472;2022-08-03T11:39:41;30.30;78.50
52016;DHT22;38032;53.326;6.472;2022-08-03T11:44:51;29.90;79.60
52016;DHT22;38032;53.326;6.472;2022-08-03T11:47:19;29.70;80.20
52016;DHT22;38032;53.326;6.472;2022-08-03T11:49:46;29.60;81.20
52016;DHT22;38032;53.326;6.472;2022-08-03T11:52:13;29.50;82.10
52016;DHT22;38032;53.326;6.472;2022-08-03T11:54:40;29.30;82.70
52016;DHT22;38032;53.326;6.472;2022-08-03T11:57:08;29.20;83.40
52016;DHT22;38032;53.326;6.472;2022-08-03T11:59:35;29.00;84.80
52016;DHT22;38032;53.326;6.472;2022-08-03T12:02:08;28.90;85.40
52016;DHT22;38032;53.326;6.472;2022-08-03T12:04:56;28.80;86.90
52016;DHT22;38032;53.326;6.472;2022-08-03T12:07:25;28.70;89.20
52016;DHT22;38032;53.326;6.472;2022-08-03T12:10:09;28.60;89.80
52016;DHT22;38032;53.326;6.472;2022-08-03T12:12:36;28.50;90.80
52016;DHT22;38032;53.326;6.472;2022-08-03T12:15:03;28.50;91.10
52016;DHT22;38032;53.326;6.472;2022-08-03T12:17:35;28.50;91.70
52016;DHT22;38032;53.326;6.472;2022-08-03T12:20:02;28.40;92.50
52016;DHT22;38032;53.326;6.472;2022-08-03T12:22:32;28.30;92.80
52016;DHT22;38032;53.326;6.472;2022-08-03T12:24:58;28.30;93.40
52016;DHT22;38032;53.326;6.472;2022-08-03T12:27:25;28.20;93.90
52016;DHT22;38032;53.326;6.472;2022-08-03T12:29:53;28.20;94.20
52016;DHT22;38032;53.326;6.472;2022-08-03T12:32:20;28.20;94.40
52016;DHT22;38032;53.326;6.472;2022-08-03T12:34:47;28.20;94.60
52016;DHT22;38032;53.326;6.472;2022-08-03T12:37:13;28.20;94.90
52016;DHT22;38032;53.326;6.472;2022-08-03T12:39:39;28.10;95.10
52016;DHT22;38032;53.326;6.472;2022-08-03T12:42:05;28.10;95.40
52016;DHT22;38032;53.326;6.472;2022-08-03T12:44:32;28.10;95.40
52016;DHT22;38032;53.326;6.472;2022-08-03T12:47:00;28.10;95.70
52016;DHT22;38032;53.326;6.472;2022-08-03T12:49:26;28.10;95.90
52016;DHT22;38032;53.326;6.472;2022-08-03T12:54:20;28.10;96.20
52016;DHT22;38032;53.326;6.472;2022-08-03T12:56:59;28.10;96.50
52016;DHT22;38032;53.326;6.472;2022-08-03T12:59:28;28.10;96.70
52016;DHT22;38032;53.326;6.472;2022-08-03T13:01:54;28.10;96.80
52016;DHT22;38032;53.326;6.472;2022-08-03T13:04:32;28.10;96.80
52016;DHT22;38032;53.326;6.472;2022-08-03T13:07:00;28.10;96.80
52016;DHT22;38032;53.326;6.472;2022-08-03T13:09:27;28.10;96.70
52016;DHT22;38032;53.326;6.472;2022-08-03T13:12:07;28.10;96.70
52016;DHT22;38032;53.326;6.472;2022-08-03T13:14:34;28.20;96.90
52016;DHT22;38032;53.326;6.472;2022-08-03T13:17:00;28.20;96.80
52016;DHT22;38032;53.326;6.472;2022-08-03T13:19:26;28.10;96.90
52016;DHT22;38032;53.326;6.472;2022-08-03T13:21:51;28.10;96.90
52016;DHT22;38032;53.326;6.472;2022-08-03T13:24:17;28.10;96.90
52016;DHT22;38032;53.326;6.472;2022-08-03T13:26:44;28.10;96.80
52016;DHT22;38032;53.326;6.472;2022-08-03T13:29:09;28.10;96.80
52016;DHT22;38032;53.326;6.472;2022-08-03T13:31:35;28.10;96.70
52016;DHT22;38032;53.326;6.472;2022-08-03T13:34:01;28.10;96.80
52016;DHT22;38032;53.326;6.472;2022-08-03T13:36:27;28.00;96.80
52016;DHT22;38032;53.326;6.472;2022-08-03T13:38:53;28.10;96.70
52016;DHT22;38032;53.326;6.472;2022-08-03T13:41:19;28.10;96.60
52016;DHT22;38032;53.326;6.472;2022-08-03T13:43:44;28.10;96.60
52016;DHT22;38032;53.326;6.472;2022-08-03T13:46:10;28.10;96.50
52016;DHT22;38032;53.326;6.472;2022-08-03T13:48:36;28.10;96.40
52016;DHT22;38032;53.326;6.472;2022-08-03T13:51:02;28.10;96.20
52016;DHT22;38032;53.326;6.472;2022-08-03T13:53:28;28.00;96.10
52016;DHT22;38032;53.326;6.472;2022-08-03T13:55:53;28.00;95.90
52016;DHT22;38032;53.326;6.472;2022-08-03T13:58:19;28.00;95.80
52016;DHT22;38032;53.326;6.472;2022-08-03T14:00:45;27.90;95.60
52016;DHT22;38032;53.326;6.472;2022-08-03T14:03:11;28.00;95.40
52016;DHT22;38032;53.326;6.472;2022-08-03T14:05:37;27.90;95.30
52016;DHT22;38032;53.326;6.472;2022-08-03T14:08:05;28.00;95.20
52016;DHT22;38032;53.326;6.472;2022-08-03T14:10:33;28.00;95.00
52016;DHT22;38032;53.326;6.472;2022-08-03T14:12:59;28.10;95.00
52016;DHT22;38032;53.326;6.472;2022-08-03T14:15:26;28.10;95.00
52016;DHT22;38032;53.326;6.472;2022-08-03T14:17:53;28.20;95.10
52016;DHT22;38032;53.326;6.472;2022-08-03T14:20:19;28.20;95.20
52016;DHT22;38032;53.326;6.472;2022-08-03T14:22:44;28.10;94.90
52016;DHT22;38032;53.326;6.472;2022-08-03T14:25:10;28.10;94.80
52016;DHT22;38032;53.326;6.472;2022-08-03T14:27:36;28.00;94.70
52016;DHT22;38032;53.326;6.472;2022-08-03T14:30:02;27.90;94.50
52016;DHT22;38032;53.326;6.472;2022-08-03T14:32:29;27.90;94.60
52016;DHT22;38032;53.326;6.472;2022-08-03T14:34:55;27.80;94.80
52016;DHT22;38032;53.326;6.472;2022-08-03T14:37:21;27.70;95.00
52016;DHT22;38032;53.326;6.472;2022-08-03T14:39:47;27.70;95.10
52016;DHT22;38032;53.326;6.472;2022-08-03T14:42:13;27.80;95.20
52016;DHT22;38032;53.326;6.472;2022-08-03T14:44:40;27.80;95.30
52016;DHT22;38032;53.326;6.472;2022-08-03T14:47:06;27.80;95.20
52016;DHT22;38032;53.326;6.472;2022-08-03T14:49:32;27.80;95.10
52016;DHT22;38032;53.326;6.472;2022-08-03T14:51:58;27.90;94.90
52016;DHT22;38032;53.326;6.472;2022-08-03T14:54:24;27.90;94.70
52016;DHT22;38032;53.326;6.472;2022-08-03T14:56:50;27.80;94.50
52016;DHT22;38032;53.326;6.472;2022-08-03T14:59:16;27.80;94.30
52016;DHT22;38032;53.326;6.472;2022-08-03T15:01:42;27.70;94.00
52016;DHT22;38032;53.326;6.472;2022-08-03T15:04:08;27.80;93.80
52016;DHT22;38032;53.326;6.472;2022-08-03T15:06:33;27.80;93.70
52016;DHT22;38032;53.326;6.472;2022-08-03T15:09:00;27.90;93.60
52016;DHT22;38032;53.326;6.472;2022-08-03T15:11:25;27.90;93.50
52016;DHT22;38032;53.326;6.472;2022-08-03T15:13:51;27.80;93.70
52016;DHT22;38032;53.326;6.472;2022-08-03T15:16:17;27.80;93.60
52016;DHT22;38032;53.326;6.472;2022-08-03T15:18:43;27.80;93.20
52016;DHT22;38032;53.326;6.472;2022-08-03T15:21:08;27.80;92.60
52016;DHT22;38032;53.326;6.472;2022-08-03T15:23:34;27.80;92.40
52016;DHT22;38032;53.326;6.472;2022-08-03T15:26:00;27.80;92.10
52016;DHT22;38032;53.326;6.472;2022-08-03T15:28:26;27.80;91.80
52016;DHT22;38032;53.326;6.472;2022-08-03T15:30:52;27.70;91.50
52016;DHT22;38032;53.326;6.472;2022-08-03T15:33:18;27.70;91.30
52016;DHT22;38032;53.326;6.472;2022-08-03T15:35:44;27.70;91.10
52016;DHT22;38032;53.326;6.472;2022-08-03T15:38:11;27.70;90.90
52016;DHT22;38032;53.326;6.472;2022-08-03T15:40:37;27.70;90.80
52016;DHT22;38032;53.326;6.472;2022-08-03T15:43:03;27.60;90.70
52016;DHT22;38032;53.326;6.472;2022-08-03T15:45:29;27.70;90.90
52016;DHT22;38032;53.326;6.472;2022-08-03T15:47:55;27.70;90.90
52016;DHT22;38032;53.326;6.472;2022-08-03T15:50:21;27.70;91.10
52016;DHT22;38032;53.326;6.472;2022-08-03T15:52:47;27.70;91.30